Flight Track Log - Related Links

Times and Time Zones

All times are in EDT time to prevent confusion due to time zone crossing. See the GJS3710 flight status page for this flight to view local times or setup timezone preferences in your user account.

Time Position Orientation Groundspeed Altitude Reporting Facility
EDT Latitude Longitude Course Direction KTS MPH feet Rate Location/Type
Tue 03:02:41 PM 29.5200 -98.4569 119° Southeast 161 185 1,700  Level Houston Center
Tue 03:03:50 PM 29.4897 -98.3942 119° Southeast 202 232 4,100 2,015 Climbing Houston Center
Tue 03:04:52 PM 29.5408 -98.3378 44° Northeast 279 321 6,100 2,468 Climbing Houston Center
Tue 03:05:54 PM 29.6272 -98.3303 North 294 338 9,200 2,208 Climbing Houston Center
Tue 03:06:57 PM 29.7144 -98.3408 354° North 320 368 10,700 1,248 Climbing Houston Center
Tue 03:07:59 PM 29.8300 -98.3564 353° North 388 447 11,800 1,500 Climbing Houston Center
Tue 03:09:01 PM 29.9389 -98.3883 346° North 405 466 13,800 1,935 Climbing Houston Center
Tue 03:10:03 PM 30.0492 -98.4464 336° Northwest 423 487 15,800 1,694 Climbing Houston Center
Tue 03:11:05 PM 30.1369 -98.5283 321° Northwest 415 478 17,300 1,306 Climbing Houston Center
Tue 03:12:07 PM 30.2139 -98.6442 308° West 424 488 18,500 1,355 Climbing Houston Center
Tue 03:13:09 PM 30.2858 -98.7531 307° West 427 491 20,100 1,296 Climbing Houston Center
Tue 03:14:12 PM 30.3594 -98.8669 307° West 435 501 21,200 1,056 Climbing Houston Center
Tue 03:15:14 PM 30.4356 -98.9831 307° West 444 511 22,300 1,065 Climbing Houston Center
Tue 03:16:16 PM 30.5108 -99.1008 307° West 446 513 23,400 1,016 Climbing Houston Center
Tue 03:17:18 PM 30.5911 -99.2219 308° West 455 524 24,400 968 Climbing Houston Center
Tue 03:18:20 PM 30.6681 -99.3394 307° West 458 527 25,400 968 Climbing Houston Center
Tue 03:19:22 PM 30.7447 -99.4567 307° West 458 527 26,400 1,065 Climbing Houston Center
Tue 03:20:24 PM 30.8317 -99.5944 306° West 437 503 27,600 774 Climbing Houston Center
Tue 03:21:26 PM 30.9064 -99.7078 308° West 442 509 28,000 192 Climbing Houston Center
Tue 03:22:29 PM 30.9778 -99.8214 306° West 431 496 28,000  Level Houston Center
Tue 03:23:31 PM 31.0503 -99.9372 306° West 438 504 28,000  Level Houston Center
Tue 03:24:33 PM 31.1250 -100.0581 306° West 474 545 28,000  Level Houston Center
Tue 03:25:35 PM 31.2144 -100.1981 307° West 456 525 28,000 97 Level Houston Center
Tue 03:26:37 PM 31.2881 -100.3139 307° West 448 516 28,200 629 Climbing Houston Center
Tue 03:27:39 PM 31.3831 -100.4067 320° Northwest 461 531 29,300 1,016 Climbing Houston Center
Tue 03:28:41 PM 31.5189 -100.3781 10° North 508 585 30,300 960 Climbing Houston Center
Tue 03:29:44 PM 31.6564 -100.3464 11° North 520 598 31,300 912 Climbing Houston Center
Tue 03:30:46 PM 31.7958 -100.3953 343° North 465 535 32,200 787 Climbing Fort Worth Center
Tue 03:31:46 PM 31.9242 -100.4436 342° North 471 542 32,900 700 Climbing Fort Worth Center
Tue 03:32:46 PM 32.0564 -100.4944 342° North 478 550 33,600 694 Climbing Fort Worth Center
Tue 03:33:47 PM 32.1847 -100.5381 344° North 478 550 34,300 700 Climbing Fort Worth Center
Tue 03:34:46 PM 32.3172 -100.5869 343° North 483 556 35,000 706 Climbing Fort Worth Center
Tue 03:35:46 PM 32.4453 -100.6358 342° North 483 556 35,700 645 Climbing Fort Worth Center
Tue 03:36:47 PM 32.5756 -100.6872 342° North 483 556 36,300 550 Climbing Fort Worth Center
Tue 03:37:46 PM 32.7183 -100.7394 343° North 483 556 36,800 504 Climbing Fort Worth Center
Tue 03:38:46 PM 32.8506 -100.7864 343° North 483 556 37,300 550 Climbing Fort Worth Center
Tue 03:39:46 PM 32.9786 -100.8333 343° North 483 556 37,900 350 Climbing Fort Worth Center
Tue 03:40:46 PM 33.1067 -100.8828 342° North 478 550 38,000 50 Climbing Fort Worth Center
Tue 03:41:46 PM 33.2389 -100.9303 343° North 483 556 38,000  Level Fort Worth Center
Tue 03:42:46 PM 33.3711 -100.9778 343° North 490 564 38,000  Level Fort Worth Center
Tue 03:43:46 PM 33.5056 -101.0281 343° North 496 571 38,000  Level Fort Worth Center
Tue 03:44:46 PM 33.6333 -101.0758 343° North 496 571 38,000  Level Fort Worth Center
Tue 03:45:46 PM 33.7675 -101.1264 343° North 496 571 38,000  Level Fort Worth Center
Tue 03:46:46 PM 33.8994 -101.1794 342° North 496 571 38,000  Level Fort Worth Center
Tue 03:47:46 PM 34.0294 -101.2303 342° North 490 564 38,000  Level Fort Worth Center
Tue 03:48:46 PM 34.1594 -101.2786 343° North 499 574 38,000  Level Fort Worth Center
Tue 03:50:48 PM 34.4208 -101.3761 343° North 497 572 38,000  Level Albuquerque Center
Tue 03:51:50 PM 34.5525 -101.4278 342° North 498 573 38,000  Level Albuquerque Center
Tue 03:52:51 PM 34.6836 -101.4789 342° North 497 572 38,000  Level Albuquerque Center
Tue 03:53:53 PM 34.8131 -101.5364 340° North 494 568 38,000  Level Albuquerque Center
Tue 03:54:55 PM 34.9417 -101.5942 340° North 492 566 38,000  Level Albuquerque Center
Tue 03:55:56 PM 35.0844 -101.6575 340° North 501 577 38,000  Level Albuquerque Center
Tue 03:56:58 PM 35.2136 -101.7153 340° North 499 574 38,000  Level Albuquerque Center
Tue 03:57:59 PM 35.3414 -101.7725 340° North 488 562 38,000  Level Albuquerque Center
Tue 03:59:01 PM 35.4928 -101.8411 340° North 491 565 38,000  Level Albuquerque Center
Tue 04:00:03 PM 35.6233 -101.9011 340° North 490 564 38,000  Level Albuquerque Center
Tue 04:01:05 PM 35.7503 -101.9589 340° North 489 563 38,000  Level Albuquerque Center
Tue 04:02:06 PM 35.8794 -102.0167 340° North 491 565 38,000  Level Albuquerque Center
Tue 04:03:08 PM 36.0078 -102.0758 340° North 492 566 38,000  Level Albuquerque Center
Tue 04:04:10 PM 36.1358 -102.1344 340° North 491 565 38,000  Level Albuquerque Center
Tue 04:05:12 PM 36.2633 -102.1933 340° North 490 564 38,000 -49 Level Albuquerque Center
Tue 04:06:13 PM 36.3908 -102.2517 340° North 489 563 37,900 -439 Descending Albuquerque Center
Tue 04:07:15 PM 36.5408 -102.3206 340° North 482 555 37,100 -726 Descending Albuquerque Center
Tue 04:08:17 PM 36.6636 -102.3769 340° North 473 544 36,400 -532 Descending Albuquerque Center
Tue 04:09:19 PM 36.7850 -102.4347 339° North 469 540 36,000 -195 Descending Albuquerque Center
Tue 04:10:20 PM 36.9100 -102.4919 340° North 471 542 36,000  Level Albuquerque Center
Tue 04:11:22 PM 37.0428 -102.5556 339° North 481 554 36,000  Level Albuquerque Center
Tue 04:12:24 PM 37.1667 -102.6128 340° North 491 565 36,000  Level Albuquerque Center
Tue 04:13:26 PM 37.3103 -102.6811 339° North 495 570 36,000  Level Albuquerque Center
Tue 04:14:27 PM 37.4289 -102.7372 339° North 484 557 36,000  Level Albuquerque Center
Tue 04:15:29 PM 37.5678 -102.7953 342° North 474 545 36,000  Level Albuquerque Center
Tue 04:16:31 PM 37.6875 -102.8331 346° North 467 537 36,000  Level Albuquerque Center
Tue 04:17:33 PM 37.8194 -102.9053 337° Northwest 467 537 36,000  Level Albuquerque Center
Tue 04:18:47 PM 37.9639 -103.0225 327° Northwest 479 551 36,000  Level Denver Center
Tue 04:19:49 PM 38.0658 -103.1075 327° Northwest 484 557 36,000  Level Denver Center
Tue 04:20:51 PM 38.1803 -103.2025 327° Northwest 486 559 36,000  Level Denver Center
Tue 04:21:53 PM 38.3061 -103.3081 327° Northwest 486 559 36,000  Level Denver Center
Tue 04:22:54 PM 38.4461 -103.3350 351° North 478 550 36,000  Level Denver Center
Tue 04:23:56 PM 38.5658 -103.2883 17° North 469 540 36,000  Level Denver Center
Tue 04:24:58 PM 38.6867 -103.2211 23° Northeast 473 544 36,000  Level Denver Center
Tue 04:25:59 PM 38.8222 -103.1483 23° Northeast 472 543 36,000  Level Denver Center
Tue 04:27:01 PM 38.9386 -103.0856 23° Northeast 473 544 36,000  Level Denver Center
Tue 04:28:03 PM 39.0678 -103.0169 22° Northeast 448 516 36,000  Level Denver Center
Tue 04:29:05 PM 39.1817 -102.9972 North 440 506 36,000 -195 Level Denver Center
Tue 04:30:06 PM 39.2903 -103.0492 340° North 438 504 35,600 -1,024 Descending Denver Center
Tue 04:31:08 PM 39.3792 -103.1822 311° West 444 511 33,900 -1,839 Descending Denver Center
Tue 04:32:10 PM 39.4083 -103.3283 285° West 445 512 31,800 -3,194 Descending Denver Center
Tue 04:33:12 PM 39.4042 -103.5022 268° West 433 498 27,300 -3,951 Descending Denver Center
Tue 04:34:13 PM 39.4028 -103.6425 269° West 411 473 23,700 -3,561 Descending Denver Center
Tue 04:35:15 PM 39.4008 -103.7928 269° West 390 449 20,000 -3,097 Descending Denver Center
Tue 04:36:17 PM 39.4067 -103.9189 273° West 353 406 17,300 -2,855 Descending Denver Center
Tue 04:37:19 PM 39.4214 -104.0406 279° West 324 373 14,100 -2,098 Descending Denver Center
Tue 04:38:20 PM 39.4342 -104.1553 278° West 323 372 13,000 -488 Descending Denver Center
Tue 04:39:22 PM 39.4456 -104.2672 278° West 317 365 13,100 -48 Climbing Denver Center
Tue 04:40:24 PM 39.4644 -104.3769 283° West 294 338 12,900 -968 Descending Denver Center
Tue 04:41:26 PM 39.4878 -104.4722 288° West 281 323 11,100 -1,366 Descending Denver Center
Tue 04:42:27 PM 39.5225 -104.5575 298° West 280 322 10,100 -634 Descending Denver Center
Tue 04:43:29 PM 39.5917 -104.5825 344° North 240 276 9,800 -629 Descending Denver Center
Tue 04:44:31 PM 39.6522 -104.6244 332° Northwest 245 282 8,800 -968 Descending Denver Center
Tue 04:45:33 PM 39.7128 -104.6625 334° Northwest 225 259 7,800 -1,024 Descending Denver Center
Tue 04:46:34 PM 39.7594 -104.6622 360° North 173 199 6,700 -878 Descending Denver Center
Tue 04:47:36 PM 39.8044 -104.6611 North 163 188 6,000 -629 Descending Denver Center
Tue 04:48:38 PM 39.8458 -104.6592 North 141 162 5,400 -581 Descending Denver Center
Tue 04:50:00 PM 39.8500 -104.6667 North  Level FlightAware Approximate
Tue 04:57:00 PM 39.8617 -104.6732 North  Level Estimated
Tue 04:58:00 PM 39.8617 -104.6732 North  Level Estimated

Login

Don't have an account? Register now (free) for customized features, flight alerts, and more!